createdAt,value
2018-10-02T07:44:54.794Z,248.00
2018-10-02T07:45:55.984Z,244.00
2018-10-02T07:46:56.216Z,252.00
2018-10-02T07:47:56.216Z,240.00
2018-10-02T07:48:54.641Z,252.00
2018-10-02T07:49:55.092Z,268.00
2018-10-02T07:50:54.984Z,280.00
2018-10-02T07:51:54.945Z,608.00
2018-10-02T07:52:54.847Z,604.00
2018-10-02T07:53:54.953Z,620.00
2018-10-02T07:54:54.952Z,620.00
2018-10-02T07:55:54.975Z,616.00
2018-10-02T07:56:57.595Z,588.00
2018-10-02T07:57:55.836Z,568.00
2018-10-02T07:58:56.527Z,556.00
2018-10-02T07:59:56.400Z,556.00
2018-10-02T08:00:54.516Z,580.00
2018-10-02T08:01:55.430Z,608.00
2018-10-02T08:02:55.176Z,596.00
2018-10-02T08:03:55.036Z,636.00
2018-10-02T08:04:56.639Z,660.00
2018-10-02T08:05:54.797Z,652.00
2018-10-02T08:06:54.679Z,600.00
2018-10-02T08:07:55.628Z,588.00
2018-10-02T08:08:54.535Z,596.00
2018-10-02T08:09:56.947Z,620.00
2018-10-02T08:10:54.561Z,600.00
2018-10-02T08:11:55.318Z,588.00
2018-10-02T08:12:55.682Z,588.00
2018-10-02T08:13:55.294Z,616.00
2018-10-02T08:15:10.560Z,624.00
2018-10-02T08:15:55.553Z,640.00
2018-10-02T08:16:55.229Z,644.00
2018-10-02T08:17:55.713Z,644.00
2018-10-02T08:18:55.228Z,612.00
2018-10-02T08:19:55.253Z,604.00
2018-10-02T08:20:54.381Z,600.00
2018-10-02T08:21:56.029Z,576.00
2018-10-02T08:22:55.695Z,580.00
2018-10-02T08:23:55.910Z,600.00
2018-10-02T08:24:55.550Z,576.00
2018-10-02T08:25:55.054Z,560.00
2018-10-02T08:26:54.375Z,540.00
2018-10-02T08:27:55.906Z,540.00
2018-10-02T08:28:55.457Z,576.00
2018-10-02T08:29:55.563Z,556.00
2018-10-02T08:30:55.693Z,540.00
2018-10-02T08:31:55.643Z,536.00
2018-10-02T08:32:54.902Z,536.00
2018-10-02T08:33:55.424Z,516.00
2018-10-02T08:34:55.745Z,524.00
2018-10-02T08:35:55.336Z,520.00
2018-10-02T08:36:54.578Z,520.00
2018-10-02T08:37:54.132Z,544.00
2018-10-02T08:38:56.702Z,576.00
2018-10-02T08:39:55.500Z,584.00
2018-10-02T08:40:54.948Z,600.00
2018-10-02T08:41:55.648Z,684.00
2018-10-02T08:42:55.621Z,688.00
2018-10-02T08:43:55.037Z,656.00
2018-10-02T08:44:55.671Z,600.00
2018-10-02T08:45:55.473Z,548.00
2018-10-02T08:46:55.403Z,540.00
2018-10-02T08:47:55.575Z,552.00
2018-10-02T08:48:54.950Z,576.00
2018-10-02T08:50:00.514Z,584.00
2018-10-02T08:50:54.115Z,596.00
2018-10-02T08:51:54.372Z,620.00
2018-10-02T08:52:54.333Z,632.00
2018-10-02T08:53:54.230Z,612.00
2018-10-02T08:54:55.568Z,616.00
2018-10-02T08:55:53.895Z,636.00
2018-10-02T08:56:55.084Z,648.00
2018-10-02T08:57:55.180Z,640.00
2018-10-02T08:58:54.221Z,608.00
2018-10-02T09:00:09.908Z,612.00
2018-10-02T09:00:58.541Z,644.00
2018-10-02T09:01:53.953Z,676.00
2018-10-02T09:02:54.077Z,652.00
2018-10-02T09:03:57.135Z,620.00
2018-10-02T09:04:53.863Z,620.00
2018-10-02T09:05:57.125Z,608.00
2018-10-02T09:07:02.013Z,592.00
2018-10-02T09:07:57.998Z,568.00
2018-10-02T09:08:58.102Z,572.00
2018-10-02T09:09:53.737Z,552.00
2018-10-02T09:10:53.769Z,564.00
2018-10-02T09:11:53.950Z,548.00
2018-10-02T09:12:53.788Z,544.00
2018-10-02T09:14:00.552Z,524.00
2018-10-02T09:14:53.773Z,528.00
2018-10-02T09:15:53.909Z,552.00
2018-10-02T09:16:54.469Z,564.00
2018-10-02T09:17:53.747Z,584.00
2018-10-02T09:18:53.704Z,588.00
2018-10-02T09:19:55.163Z,572.00
2018-10-02T09:20:53.765Z,576.00
2018-10-02T09:21:55.213Z,584.00
2018-10-02T09:22:55.040Z,584.00
2018-10-02T09:23:56.173Z,588.00
2018-10-02T09:24:54.066Z,596.00
